Station History

Weather Underground - logo

Station Historical Data
Daily Summary for January 03, 2018 Units:  Metric    English   Both
« Previous Day
Next Day »
Daily Weekly Monthly Yearly Custom
  High: Low: Average:
Temperature: 19.2 °C 3.8 °C 11.2 °C
Dew Point: 9.3 °C 2.7 °C 6.6 °C
Humidity: 95 % 47 % 76 %
Wind Speed: 6.4 km/h 0 km/h 0.6 km/h
Wind Gust: 6.4 km/h - -
Wind:- - WSW
Pressure: 1020.9 hPa 1016.1 hPa -
Precipitation: 0 mm    
Historical Graphs
 
 
Tabular Data for January 03, 2018
Time Temperature Dew Point Pressure Wind Wind Speed Wind Gust Humidity Rainfall Rate (Hourly)
00:05 7.7 °C 6.1 °C 1020.9 hPa Calm     90 % 0 mm
00:10 7.8 °C 6.3 °C 1020.5 hPa Calm     90 % 0 mm
00:12 7.9 °C 6.2 °C 1020.5 hPa Calm     89 % 0 mm
00:14 7.9 °C 6.2 °C 1020.5 hPa Calm     89 % 0 mm
00:19 7.8 °C 5.9 °C 1020.5 hPa Calm     88 % 0 mm
00:21 7.7 °C 5.8 °C 1020.5 hPa Calm     88 % 0 mm
00:23 7.7 °C 5.8 °C 1020.5 hPa Calm     88 % 0 mm
00:28 7.4 °C 5.6 °C 1020.2 hPa Calm     88 % 0 mm
00:29 7.3 °C 5.5 °C 1020.2 hPa Calm     88 % 0 mm
00:33 7.2 °C 5.3 °C 1020.2 hPa Calm     88 % 0 mm
00:38 6.8 °C 5 °C 1020.2 hPa Calm     88 % 0 mm
00:46 6.4 °C 4.7 °C 1019.9 hPa Calm     89 % 0 mm
00:51 6.1 °C 4.4 °C 1019.9 hPa SSE 1.9 km/h 1.9 km/h 89 % 0 mm
00:53 5.9 °C 4.3 °C 1019.9 hPa Calm     89 % 0 mm
00:57 5.8 °C 4.3 °C 1019.9 hPa Calm     90 % 0 mm
00:59 5.8 °C 4.3 °C 1019.9 hPa Calm     90 % 0 mm
01:02 5.7 °C 4.3 °C 1019.9 hPa Calm     91 % 0 mm
01:04 5.7 °C 4.3 °C 1019.9 hPa Calm     91 % 0 mm
01:09 5.4 °C 4.1 °C 1019.9 hPa Calm     91 % 0 mm
01:14 5.3 °C 4 °C 1020.2 hPa Calm     91 % 0 mm
01:15 5.3 °C 3.9 °C 1020.2 hPa Calm     91 % 0 mm
01:20 5.1 °C 3.8 °C 1020.2 hPa Calm     91 % 0 mm
01:22 5.1 °C 3.8 °C 1020.2 hPa Calm     91 % 0 mm
01:26 5.1 °C 3.9 °C 1020.2 hPa Calm     92 % 0 mm
01:31 5.1 °C 3.9 °C 1020.5 hPa Calm     92 % 0 mm
01:36 4.9 °C 3.8 °C 1020.5 hPa Calm     92 % 0 mm
01:40 4.8 °C 3.7 °C 1020.5 hPa Calm     92 % 0 mm
01:41 4.8 °C 3.6 °C 1020.5 hPa Calm     92 % 0 mm
01:46 4.7 °C 3.5 °C 1020.5 hPa Calm     92 % 0 mm
01:48 4.6 °C 3.4 °C 1020.5 hPa Calm     92 % 0 mm
01:50 4.6 °C 3.4 °C 1020.5 hPa Calm   0.3 km/h 92 % 0 mm
01:55 4.6 °C 3.5 °C 1020.5 hPa Calm     93 % 0 mm
01:57 4.5 °C 3.4 °C 1020.5 hPa Calm     93 % 0 mm
01:59 4.5 °C 3.4 °C 1020.5 hPa Calm     93 % 0 mm
02:03 4.4 °C 3.4 °C 1020.5 hPa Calm     93 % 0 mm
02:08 4.4 °C 3.3 °C 1020.5 hPa Calm     93 % 0 mm
02:09 4.4 °C 3.3 °C 1020.5 hPa Calm     93 % 0 mm
02:14 4.4 °C 3.3 °C 1020.5 hPa Calm     93 % 0 mm
02:17 4.4 °C 3.4 °C 1020.5 hPa Calm     93 % 0 mm
02:21 4.4 °C 3.4 °C 1020.5 hPa Calm     93 % 0 mm
02:25 4.4 °C 3.4 °C 1020.5 hPa Calm     93 % 0 mm
02:30 4.6 °C 3.5 °C 1020.5 hPa Calm     93 % 0 mm
02:32 4.6 °C 3.7 °C 1020.5 hPa Calm     94 % 0 mm
02:33 4.6 °C 3.7 °C 1020.5 hPa Calm     94 % 0 mm
02:38 4.7 °C 3.8 °C 1020.5 hPa Calm     94 % 0 mm
02:43 4.9 °C 4 °C 1020.5 hPa Calm     94 % 0 mm
02:48 5 °C 4.1 °C 1020.5 hPa Calm     94 % 0 mm
02:49 5 °C 4.1 °C 1020.5 hPa Calm     94 % 0 mm
02:54 5.1 °C 4 °C 1020.5 hPa Calm     93 % 0 mm
02:55 5.1 °C 4 °C 1020.5 hPa Calm     93 % 0 mm
02:56 5.1 °C 4.1 °C 1020.5 hPa Calm     93 % 0 mm
03:03 5.3 °C 4.3 °C 1020.5 hPa Calm     93 % 0 mm
03:14 5.5 °C 4.4 °C 1020.5 hPa Calm     93 % 0 mm
03:19 5.4 °C 4.2 °C 1020.5 hPa Calm     92 % 0 mm
03:22 5.4 °C 4.2 °C 1020.5 hPa Calm     92 % 0 mm
03:27 5.2 °C 4 °C 1020.5 hPa Calm     92 % 0 mm
03:32 5.1 °C 3.9 °C 1020.5 hPa Calm     92 % 0 mm
03:33 5.1 °C 3.9 °C 1020.5 hPa Calm     92 % 0 mm
03:39 5.2 °C 4.1 °C 1020.5 hPa Calm     93 % 0 mm
03:44 5.1 °C 3.9 °C 1020.2 hPa Calm     92 % 0 mm
03:48 4.9 °C 3.7 °C 1020.2 hPa Calm     92 % 0 mm
03:53 4.8 °C 3.7 °C 1020.2 hPa Calm     92 % 0 mm
03:54 4.8 °C 3.8 °C 1020.2 hPa Calm     93 % 0 mm
03:59 4.9 °C 3.9 °C 1020.2 hPa Calm     93 % 0 mm
04:06 4.9 °C 3.8 °C 1019.9 hPa Calm     93 % 0 mm
04:10 4.9 °C 3.8 °C 1019.9 hPa Calm     93 % 0 mm
04:11 4.9 °C 3.8 °C 1019.9 hPa Calm     93 % 0 mm
04:16 4.9 °C 3.8 °C 1019.9 hPa Calm     93 % 0 mm
04:18 4.8 °C 3.8 °C 1019.9 hPa Calm     93 % 0 mm
04:23 4.8 °C 3.7 °C 1019.5 hPa Calm     93 % 0 mm
04:28 4.7 °C 3.6 °C 1019.5 hPa Calm     93 % 0 mm
04:29 4.7 °C 3.6 °C 1019.5 hPa Calm     93 % 0 mm
04:34 4.6 °C 3.6 °C 1019.5 hPa Calm     93 % 0 mm
04:37 4.5 °C 3.4 °C 1019.5 hPa Calm     93 % 0 mm
04:42 4.4 °C 3.3 °C 1019.2 hPa Calm     93 % 0 mm
04:44 4.4 °C 3.3 °C 1019.2 hPa Calm     93 % 0 mm
04:49 4.4 °C 3.3 °C 1019.2 hPa Calm     93 % 0 mm
04:57 4.4 °C 3.3 °C 1019.2 hPa Calm     93 % 0 mm
05:02 4.2 °C 3.2 °C 1019.2 hPa Calm     93 % 0 mm
05:04 4.1 °C 2.9 °C 1018.8 hPa Calm     92 % 0 mm
05:12 3.8 °C 2.8 °C 1018.8 hPa Calm     93 % 0 mm
05:15 3.8 °C 2.8 °C 1018.8 hPa Calm     93 % 0 mm
05:19 3.8 °C 2.8 °C 1018.8 hPa Calm     93 % 0 mm
05:25 3.8 °C 2.8 °C 1018.8 hPa Calm     93 % 0 mm
05:30 3.8 °C 2.9 °C 1018.8 hPa Calm     94 % 0 mm
05:31 3.8 °C 2.9 °C 1018.8 hPa Calm     94 % 0 mm
05:37 3.8 °C 2.9 °C 1018.8 hPa Calm     94 % 0 mm
05:42 3.8 °C 2.7 °C 1018.8 hPa Calm     93 % 0 mm
05:47 3.8 °C 2.9 °C 1018.5 hPa Calm     94 % 0 mm
05:50 3.8 °C 2.9 °C 1018.8 hPa Calm     94 % 0 mm
05:55 3.9 °C 3 °C 1018.8 hPa Calm     94 % 0 mm
06:00 3.8 °C 2.9 °C 1018.8 hPa Calm     94 % 0 mm
06:02 3.8 °C 2.9 °C 1018.8 hPa Calm     94 % 0 mm
06:06 3.8 °C 2.9 °C 1018.8 hPa Calm     94 % 0 mm
06:08 3.8 °C 2.9 °C 1018.8 hPa Calm     94 % 0 mm
06:13 3.9 °C 3 °C 1019.2 hPa Calm     94 % 0 mm
06:15 3.9 °C 3.1 °C 1019.2 hPa Calm     94 % 0 mm
06:19 4.1 °C 3.2 °C 1019.2 hPa Calm     94 % 0 mm
06:24 4.3 °C 3.4 °C 1019.2 hPa Calm     94 % 0 mm
06:25 4.3 °C 3.4 °C 1019.2 hPa Calm     94 % 0 mm
06:30 4.4 °C 3.6 °C 1019.2 hPa Calm     94 % 0 mm
06:34 4.6 °C 3.8 °C 1019.2 hPa Calm     95 % 0 mm
06:39 4.7 °C 4 °C 1019.2 hPa Calm     95 % 0 mm
06:40 4.7 °C 4 °C 1019.2 hPa Calm     95 % 0 mm
06:45 4.9 °C 4.2 °C 1019.2 hPa Calm     95 % 0 mm
06:49 5 °C 4.3 °C 1019.2 hPa Calm     95 % 0 mm
06:54 4.9 °C 4.1 °C 1019.5 hPa Calm     94 % 0 mm
06:55 5 °C 4.1 °C 1019.5 hPa Calm     94 % 0 mm
07:00 4.9 °C 4.1 °C 1019.5 hPa Calm     94 % 0 mm
07:05 5 °C 4.1 °C 1019.2 hPa Calm     94 % 0 mm
07:07 5.1 °C 4.2 °C 1019.2 hPa Calm     94 % 0 mm
07:08 5.1 °C 4.2 °C 1019.2 hPa Calm     94 % 0 mm
07:13 5.2 °C 4.3 °C 1019.2 hPa Calm     94 % 0 mm
07:16 5.3 °C 4.4 °C 1019.2 hPa Calm     94 % 0 mm
07:18 5.4 °C 4.6 °C 1019.5 hPa Calm     94 % 0 mm
07:23 5.5 °C 4.6 °C 1019.2 hPa Calm     94 % 0 mm
07:28 5.5 °C 4.6 °C 1019.5 hPa Calm     94 % 0 mm
07:34 5.5 °C 4.4 °C 1019.5 hPa Calm     93 % 0 mm
07:40 5.6 °C 4.5 °C 1019.5 hPa Calm     93 % 0 mm
07:41 5.6 °C 4.6 °C 1019.5 hPa Calm     93 % 0 mm
07:42 5.6 °C 4.6 °C 1019.5 hPa Calm     93 % 0 mm
07:47 5.7 °C 4.8 °C 1019.5 hPa Calm     94 % 0 mm
07:50 5.8 °C 4.9 °C 1019.2 hPa Calm     94 % 0 mm
07:53 5.9 °C 5.1 °C 1019.5 hPa Calm     94 % 0 mm
07:56 6 °C 5.1 °C 1019.5 hPa Calm     94 % 0 mm
08:01 6.2 °C 5.1 °C 1019.9 hPa Calm     93 % 0 mm
08:04 6.2 °C 5.1 °C 1019.5 hPa Calm     93 % 0 mm
08:10 6.3 °C 5.2 °C 1019.5 hPa Calm     93 % 0 mm
08:13 6.3 °C 5.3 °C 1019.5 hPa Calm     93 % 0 mm
08:15 6.4 °C 5.4 °C 1019.5 hPa Calm     93 % 0 mm
08:21 7 °C 5.9 °C 1019.5 hPa Calm     93 % 0 mm
08:26 7.4 °C 6.2 °C 1019.5 hPa Calm     92 % 0 mm
08:27 7.5 °C 6.1 °C 1019.5 hPa WNW 1.9 km/h 1.9 km/h 91 % 0 mm
08:33 8 °C 6.4 °C 1019.5 hPa Calm     90 % 0 mm
08:34 8.1 °C 6.5 °C 1019.5 hPa Calm     90 % 0 mm
08:39 8.4 °C 6.5 °C 1019.5 hPa Calm     88 % 0 mm
08:42 8.6 °C 6.7 °C 1019.5 hPa Calm     88 % 0 mm
08:47 9.1 °C 6.9 °C 1019.9 hPa Calm     86 % 0 mm
08:48 9.2 °C 6.9 °C 1019.5 hPa WNW 1.6 km/h   86 % 0 mm
08:53 9.4 °C 7.1 °C 1019.5 hPa Calm     85 % 0 mm
08:55 9.6 °C 7.1 °C 1019.5 hPa ESE 1.9 km/h 1.9 km/h 84 % 0 mm
09:01 10 °C 7.2 °C 1019.5 hPa SE 1.9 km/h   83 % 0 mm
09:08 10.4 °C 7.3 °C 1019.2 hPa SE 1.9 km/h 1.9 km/h 81 % 0 mm
09:13 10.8 °C 7.4 °C 1019.2 hPa West 1.9 km/h   80 % 0 mm
09:14 10.8 °C 7.4 °C 1019.2 hPa Calm     80 % 0 mm
09:19 10.9 °C 7.2 °C 1019.2 hPa ESE 1.9 km/h   78 % 0 mm
09:20 10.9 °C 7.3 °C 1019.2 hPa Calm     78 % 0 mm
09:25 11.3 °C 7.3 °C 1019.2 hPa NNW 3.2 km/h 3.2 km/h 76 % 0 mm
09:30 11.4 °C 7.2 °C 1018.8 hPa NW 1.9 km/h 1.9 km/h 75 % 0 mm
09:31 11.5 °C 7 °C 1019.2 hPa WNW 1.9 km/h 1.9 km/h 74 % 0 mm
09:36 11.7 °C 7.2 °C 1019.2 hPa Calm     74 % 0 mm
09:41 12.1 °C 7.2 °C 1019.2 hPa NW 1.9 km/h   72 % 0 mm
09:43 12.2 °C 7.1 °C 1019.2 hPa Calm     71 % 0 mm
09:47 12.5 °C 7.4 °C 1018.8 hPa NNW 3.7 km/h 3.7 km/h 71 % 0 mm
09:49 12.6 °C 7.5 °C 1018.8 hPa NW 3.7 km/h 3.7 km/h 71 % 0 mm
09:50 12.8 °C 7.7 °C 1018.8 hPa Calm     71 % 0 mm
09:57 13.4 °C 7.6 °C 1018.8 hPa WNW 1.6 km/h   68 % 0 mm
10:02 13.7 °C 7.7 °C 1018.5 hPa Calm     67 % 0 mm
10:08 14.4 °C 7.7 °C 1018.5 hPa NNW 1.9 km/h 1.9 km/h 64 % 0 mm
10:09 14.4 °C 7.4 °C 1018.5 hPa NW 3.2 km/h 3.2 km/h 63 % 0 mm
10:14 14.6 °C 7.1 °C 1018.5 hPa NNW 3.2 km/h 3.2 km/h 61 % 0 mm
10:16 14.6 °C 7.2 °C 1018.5 hPa NNW 1.9 km/h 1.9 km/h 61 % 0 mm
10:19 14.7 °C 7.2 °C 1018.5 hPa Calm     61 % 0 mm
10:24 14.9 °C 7.2 °C 1018.5 hPa Calm     60 % 0 mm
10:26 14.9 °C 7.5 °C 1018.5 hPa Calm     61 % 0 mm
10:31 15.2 °C 7.4 °C 1018.5 hPa Calm     60 % 0 mm
10:32 15.2 °C 7.5 °C 1018.5 hPa Calm     60 % 0 mm
10:37 15.4 °C 7.9 °C 1018.5 hPa NW 1.9 km/h 1.9 km/h 61 % 0 mm
10:39 15.5 °C 8 °C 1018.2 hPa Calm     61 % 0 mm
10:44 15.7 °C 8 °C 1018.2 hPa Calm     60 % 0 mm
10:45 15.8 °C 7.8 °C 1018.2 hPa Calm     59 % 0 mm
10:52 16.2 °C 8.4 °C 1018.2 hPa WNW 1.9 km/h 1.9 km/h 60 % 0 mm
10:57 16.2 °C 8.2 °C 1018.2 hPa Calm   0.5 km/h 59 % 0 mm
10:59 16.2 °C 7.9 °C 1018.2 hPa NW 1.9 km/h 1.9 km/h 58 % 0 mm
11:04 16.2 °C 7.7 °C 1018.2 hPa NW 3.2 km/h 3.2 km/h 57 % 0 mm
11:05 16.2 °C 7.7 °C 1018.2 hPa NW 3.7 km/h 3.7 km/h 57 % 0 mm
11:06 16.3 °C 7.7 °C 1018.2 hPa North 1.9 km/h 1.9 km/h 57 % 0 mm
11:17 16.6 °C 7.5 °C 1018.2 hPa NW 5.6 km/h 5.6 km/h 55 % 0 mm
11:19 16.6 °C 7.5 °C 1018.2 hPa NW 1.9 km/h 1.9 km/h 55 % 0 mm
11:24 16.7 °C 7.3 °C 1017.8 hPa WNW 1.9 km/h 1.9 km/h 54 % 0 mm
11:26 16.8 °C 7.2 °C 1017.8 hPa WNW 1.9 km/h 1.9 km/h 53 % 0 mm
11:34 16.9 °C 7.2 °C 1017.8 hPa Calm     53 % 0 mm
11:39 17.2 °C 7.8 °C 1017.8 hPa Calm     54 % 0 mm
11:44 17.3 °C 7.4 °C 1017.8 hPa Calm     52 % 0 mm
11:49 17.4 °C 6.9 °C 1017.5 hPa WNW 1.9 km/h   50 % 0 mm
11:51 17.5 °C 7.2 °C 1017.5 hPa WSW 1.9 km/h 1.9 km/h 51 % 0 mm
11:56 17.8 °C 7.3 °C 1017.8 hPa NW 1.9 km/h 1.9 km/h 50 % 0 mm
12:01 18.1 °C 7.5 °C 1017.5 hPa Calm     50 % 0 mm
12:03 18.2 °C 7.3 °C 1017.5 hPa Calm     49 % 0 mm
12:08 18.6 °C 8.3 °C 1017.5 hPa Calm     51 % 0 mm
12:10 18.7 °C 8.4 °C 1017.5 hPa Calm     51 % 0 mm
12:16 18.9 °C 7.7 °C 1017.5 hPa Calm     48 % 0 mm
12:20 18.9 °C 7.4 °C 1017.5 hPa Calm     47 % 0 mm
12:25 18.9 °C 7.6 °C 1017.2 hPa Calm     48 % 0 mm
12:27 18.9 °C 7.3 °C 1017.2 hPa Calm     47 % 0 mm
12:32 18.9 °C 7.3 °C 1017.2 hPa Calm     47 % 0 mm
12:33 18.9 °C 7.4 °C 1017.2 hPa Calm     47 % 0 mm
12:38 18.9 °C 7.3 °C 1017.2 hPa WNW 1.9 km/h 1.9 km/h 47 % 0 mm
12:43 18.8 °C 7.2 °C 1017.2 hPa Calm     47 % 0 mm
12:48 18.8 °C 7.3 °C 1016.8 hPa Calm     47 % 0 mm
12:50 18.8 °C 7.3 °C 1016.8 hPa Calm     47 % 0 mm
12:55 18.8 °C 7.3 °C 1016.8 hPa NNW 1.9 km/h   47 % 0 mm
12:56 18.8 °C 7.3 °C 1016.8 hPa Calm     47 % 0 mm
13:01 18.8 °C 7.6 °C 1016.8 hPa Calm     48 % 0 mm
13:05 18.8 °C 7.6 °C 1016.8 hPa Calm     48 % 0 mm
13:10 18.8 °C 7.6 °C 1016.5 hPa NW 1.9 km/h 1.9 km/h 48 % 0 mm
13:16 18.8 °C 7.6 °C 1016.5 hPa NW 1.9 km/h 1.9 km/h 48 % 0 mm
13:17 18.8 °C 7.6 °C 1016.5 hPa WNW 3.2 km/h 3.2 km/h 48 % 0 mm
13:23 18.7 °C 7.4 °C 1016.5 hPa Calm   0.2 km/h 48 % 0 mm
13:28 18.7 °C 7.4 °C 1016.5 hPa NW 1.9 km/h   48 % 0 mm
13:29 18.7 °C 7.4 °C 1016.5 hPa Calm     48 % 0 mm
13:34 18.7 °C 7.7 °C 1016.5 hPa Calm     49 % 0 mm
13:35 18.7 °C 7.7 °C 1016.5 hPa Calm     49 % 0 mm
13:40 18.7 °C 7.7 °C 1016.5 hPa WNW 3.7 km/h 3.7 km/h 49 % 0 mm
13:45 18.8 °C 7.9 °C 1016.5 hPa NW 3.7 km/h 3.7 km/h 49 % 0 mm
13:51 19 °C 8.1 °C 1016.5 hPa NW 1.9 km/h 1.9 km/h 49 % 0 mm
13:54 19.1 °C 8.2 °C 1016.5 hPa NW 1.9 km/h   49 % 0 mm
13:57 19.1 °C 7.8 °C 1016.5 hPa North 1.9 km/h 1.9 km/h 48 % 0 mm
14:03 19.1 °C 7.8 °C 1016.5 hPa NW 3.7 km/h 3.7 km/h 48 % 0 mm
14:07 19.1 °C 7.8 °C 1016.5 hPa WNW 3.7 km/h 3.7 km/h 48 % 0 mm
14:08 19.1 °C 8.2 °C 1016.5 hPa NW 1.9 km/h 1.9 km/h 49 % 0 mm
14:13 19.1 °C 7.8 °C 1016.5 hPa WNW 3.7 km/h 3.7 km/h 48 % 0 mm
14:16 19.1 °C 8.2 °C 1016.5 hPa Calm   0.3 km/h 49 % 0 mm
14:20 19.1 °C 7.8 °C 1016.5 hPa NW 1.9 km/h 1.9 km/h 48 % 0 mm
14:23 19.1 °C 7.8 °C 1016.5 hPa NNW 5.6 km/h 5.6 km/h 48 % 0 mm
14:26 19.1 °C 8.2 °C 1016.1 hPa NW 1.9 km/h 1.9 km/h 49 % 0 mm
14:30 19.1 °C 8.2 °C 1016.1 hPa NNW 1.9 km/h 1.9 km/h 49 % 0 mm
14:35 19.2 °C 8.5 °C 1016.1 hPa NW 1.9 km/h 1.9 km/h 50 % 0 mm
14:36 19.1 °C 8.4 °C 1016.1 hPa NW 1.9 km/h 1.9 km/h 50 % 0 mm
14:39 19.1 °C 8.4 °C 1016.5 hPa NW 1.9 km/h 1.9 km/h 50 % 0 mm
14:42 19.1 °C 8.7 °C 1016.5 hPa Calm     51 % 0 mm
14:46 19.1 °C 8.4 °C 1016.5 hPa NW 1.9 km/h 1.9 km/h 50 % 0 mm
14:49 19.1 °C 8.4 °C 1016.5 hPa NW 1.9 km/h   50 % 0 mm
14:54 19.1 °C 8.2 °C 1016.5 hPa NNW 3.7 km/h 3.7 km/h 49 % 0 mm
15:00 19.1 °C 8.1 °C 1016.5 hPa NW 1.6 km/h 1.6 km/h 49 % 0 mm
15:02 19.1 °C 8.1 °C 1016.5 hPa Calm     49 % 0 mm
15:06 19.1 °C 8.1 °C 1016.8 hPa Calm     49 % 0 mm
15:11 19.1 °C 8.1 °C 1016.5 hPa NW 1.9 km/h   49 % 0 mm
15:15 19 °C 8.3 °C 1016.8 hPa NW 1.9 km/h 1.9 km/h 50 % 0 mm
15:17 19 °C 8.1 °C 1016.8 hPa NW 1.9 km/h 1.9 km/h 49 % 0 mm
15:22 18.8 °C 7.6 °C 1016.5 hPa NW 1.9 km/h 1.9 km/h 48 % 0 mm
15:27 18.7 °C 7.5 °C 1016.8 hPa WNW 1.9 km/h 1.9 km/h 48 % 0 mm
15:29 18.7 °C 7.1 °C 1016.8 hPa WNW 1.9 km/h 1.9 km/h 47 % 0 mm
15:34 18.5 °C 7.6 °C 1016.8 hPa NW 1.9 km/h 1.9 km/h 49 % 0 mm
15:39 18.3 °C 7.7 °C 1016.8 hPa NW 3.7 km/h 3.7 km/h 50 % 0 mm
15:40 18.3 °C 7.7 °C 1016.8 hPa NW 3.7 km/h 3.7 km/h 50 % 0 mm
15:42 18.2 °C 7.9 °C 1016.8 hPa WNW 1.9 km/h 1.9 km/h 51 % 0 mm
15:46 18.2 °C 7.8 °C 1016.8 hPa NW 1.9 km/h 1.9 km/h 51 % 0 mm
15:51 18.1 °C 8.1 °C 1016.8 hPa Calm     52 % 0 mm
15:52 18 °C 8 °C 1016.8 hPa Calm     52 % 0 mm
15:57 17.9 °C 8.2 °C 1016.8 hPa Calm     53 % 0 mm
15:58 17.9 °C 8.2 °C 1016.8 hPa Calm     53 % 0 mm
16:00 17.8 °C 8.1 °C 1016.8 hPa Calm     53 % 0 mm
16:03 17.7 °C 8.3 °C 1016.8 hPa Calm     54 % 0 mm
16:08 17.5 °C 8.3 °C 1017.2 hPa Calm     55 % 0 mm
16:09 17.4 °C 8.3 °C 1017.2 hPa Calm     55 % 0 mm
16:14 17.3 °C 8.4 °C 1017.2 hPa Calm     56 % 0 mm
16:19 17.2 °C 8.6 °C 1017.2 hPa Calm     57 % 0 mm
16:24 17 °C 8.7 °C 1017.5 hPa Calm     58 % 0 mm
16:26 16.9 °C 8.6 °C 1017.5 hPa Calm     58 % 0 mm
16:32 16.7 °C 8.7 °C 1017.5 hPa Calm     59 % 0 mm
16:33 16.7 °C 8.6 °C 1017.5 hPa Calm     59 % 0 mm
16:38 16.6 °C 8.6 °C 1017.5 hPa Calm     59 % 0 mm
16:43 16.5 °C 8.7 °C 1017.2 hPa Calm     60 % 0 mm
16:45 16.4 °C 8.4 °C 1017.2 hPa Calm     59 % 0 mm
16:49 16.5 °C 8.4 °C 1017.2 hPa Calm     59 % 0 mm
16:54 16.6 °C 8.6 °C 1017.2 hPa Calm     59 % 0 mm
16:55 16.6 °C 8.5 °C 1017.2 hPa Calm     59 % 0 mm
17:00 16.4 °C 8.8 °C 1017.2 hPa Calm     61 % 0 mm
17:05 16.1 °C 8.8 °C 1017.2 hPa Calm     62 % 0 mm
17:10 15.8 °C 8.7 °C 1017.5 hPa Calm     63 % 0 mm
17:13 15.6 °C 8.8 °C 1017.5 hPa Calm     64 % 0 mm
17:18 15.4 °C 8.8 °C 1017.5 hPa Calm     65 % 0 mm
17:23 15.4 °C 8.8 °C 1017.5 hPa Calm     65 % 0 mm
17:24 15.4 °C 8.6 °C 1017.5 hPa Calm     64 % 0 mm
17:29 15.5 °C 8.7 °C 1017.5 hPa Calm     64 % 0 mm
17:30 15.6 °C 8.8 °C 1017.5 hPa Calm     64 % 0 mm
17:35 15.4 °C 9.3 °C 1017.5 hPa Calm     67 % 0 mm
17:40 15 °C 9.1 °C 1017.2 hPa Calm     68 % 0 mm
17:43 14.8 °C 9 °C 1017.2 hPa Calm     68 % 0 mm
17:45 14.8 °C 8.9 °C 1016.8 hPa Calm     68 % 0 mm
17:50 15 °C 8.4 °C 1016.8 hPa Calm     65 % 0 mm
17:55 15.4 °C 8.2 °C 1016.8 hPa WNW 1.9 km/h 1.9 km/h 62 % 0 mm
18:00 15.9 °C 8.2 °C 1016.8 hPa Calm     60 % 0 mm
18:05 16.2 °C 7.9 °C 1016.8 hPa NW 3.2 km/h 3.2 km/h 58 % 0 mm
18:07 16.2 °C 8.4 °C 1016.8 hPa NW 5.6 km/h 5.6 km/h 60 % 0 mm
18:12 15.9 °C 8.4 °C 1017.2 hPa WNW 1.9 km/h   61 % 0 mm
18:13 15.8 °C 8.3 °C 1017.2 hPa Calm     61 % 0 mm
18:18 15.6 °C 8.6 °C 1017.8 hPa SE 5.6 km/h 5.6 km/h 63 % 0 mm
18:19 15.5 °C 8.5 °C 1017.8 hPa SSE 6.4 km/h 6.4 km/h 63 % 0 mm
18:21 15.4 °C 8.7 °C 1017.8 hPa NNW 5.6 km/h 5.6 km/h 64 % 0 mm
18:26 15.4 °C 8.6 °C 1017.8 hPa NW 3.7 km/h 3.7 km/h 64 % 0 mm
18:28 15.4 °C 8.8 °C 1017.8 hPa NW 3.7 km/h 3.7 km/h 65 % 0 mm
18:33 15.4 °C 8.8 °C 1017.8 hPa West 1.9 km/h 1.9 km/h 65 % 0 mm
18:38 15.2 °C 8.9 °C 1017.8 hPa Calm     66 % 0 mm
18:39 15.2 °C 8.9 °C 1017.8 hPa West 1.9 km/h   66 % 0 mm
18:44 15.1 °C 8.9 °C 1017.8 hPa NNW 1.9 km/h 1.9 km/h 67 % 0 mm
18:49 14.9 °C 8.9 °C 1017.8 hPa Calm     67 % 0 mm
18:52 14.9 °C 9.1 °C 1017.8 hPa Calm     68 % 0 mm
18:54 14.8 °C 9 °C 1017.8 hPa Calm     68 % 0 mm
18:57 14.7 °C 8.9 °C 1017.8 hPa Calm     68 % 0 mm
19:02 14.6 °C 8.9 °C 1017.8 hPa Calm     69 % 0 mm
19:04 14.4 °C 8.8 °C 1017.5 hPa Calm     69 % 0 mm
19:09 14.2 °C 9.1 °C 1017.8 hPa Calm     71 % 0 mm
19:10 14.2 °C 9 °C 1017.8 hPa Calm   0.2 km/h 71 % 0 mm
19:14 13.9 °C 8.9 °C 1017.5 hPa Calm     72 % 0 mm
19:16 13.8 °C 8.8 °C 1017.5 hPa Calm     72 % 0 mm
19:21 13.6 °C 8.8 °C 1017.5 hPa Calm     73 % 0 mm
19:22 13.5 °C 8.8 °C 1017.5 hPa Calm     73 % 0 mm
19:27 13.3 °C 8.8 °C 1017.5 hPa ESE 1.9 km/h   74 % 0 mm
19:29 13.2 °C 8.7 °C 1017.5 hPa Calm     74 % 0 mm
19:31 13.2 °C 8.6 °C 1017.5 hPa Calm     74 % 0 mm
19:35 13.1 °C 8.7 °C 1017.5 hPa Calm     75 % 0 mm
19:40 12.9 °C 8.6 °C 1017.5 hPa Calm     75 % 0 mm
19:45 12.8 °C 8.7 °C 1017.2 hPa Calm     76 % 0 mm
19:46 12.7 °C 8.6 °C 1017.2 hPa Calm     76 % 0 mm
19:51 12.7 °C 8.6 °C 1017.2 hPa Calm     76 % 0 mm
19:52 12.8 °C 8.7 °C 1017.2 hPa Calm     76 % 0 mm
19:54 12.8 °C 8.7 °C 1017.2 hPa Calm     76 % 0 mm
19:58 12.8 °C 8.5 °C 1017.2 hPa Calm     75 % 0 mm
20:03 12.9 °C 8.6 °C 1016.8 hPa Calm     75 % 0 mm
20:06 12.9 °C 8.6 °C 1016.8 hPa Calm     75 % 0 mm
20:11 12.8 °C 8.5 °C 1017.2 hPa Calm     75 % 0 mm
20:13 12.8 °C 8.5 °C 1017.2 hPa Calm     75 % 0 mm
20:14 12.8 °C 8.5 °C 1017.2 hPa Calm     75 % 0 mm
20:15 12.8 °C 8.5 °C 1017.2 hPa Calm     75 % 0 mm
20:16 12.8 °C 8.4 °C 1017.2 hPa Calm     75 % 0 mm
20:17 12.8 °C 8.7 °C 1017.2 hPa Calm     76 % 0 mm
20:18 12.7 °C 8.6 °C 1017.2 hPa Calm     76 % 0 mm
20:19 12.7 °C 8.6 °C 1017.2 hPa Calm     76 % 0 mm
20:25 12.4 °C 8.5 °C 1017.2 hPa Calm     77 % 0 mm
20:30 12.3 °C 8.3 °C 1016.8 hPa Calm     77 % 0 mm
20:31 12.3 °C 8.3 °C 1016.8 hPa Calm     77 % 0 mm
20:36 12.2 °C 8.4 °C 1017.2 hPa Calm     78 % 0 mm
20:39 12.1 °C 8.3 °C 1016.8 hPa Calm     78 % 0 mm
20:40 12.1 °C 8.3 °C 1017.2 hPa Calm     78 % 0 mm
20:44 11.9 °C 8.2 °C 1017.2 hPa Calm     78 % 0 mm
20:45 11.9 °C 8.2 °C 1017.2 hPa Calm     78 % 0 mm
20:50 11.6 °C 8.3 °C 1017.2 hPa Calm     80 % 0 mm
20:51 11.6 °C 8.2 °C 1017.2 hPa Calm     80 % 0 mm
20:54 11.4 °C 8.1 °C 1017.2 hPa Calm     80 % 0 mm
20:58 11.2 °C 8.1 °C 1017.2 hPa Calm     81 % 0 mm
21:02 11.1 °C 7.9 °C 1017.2 hPa Calm     81 % 0 mm
21:07 10.8 °C 7.9 °C 1017.2 hPa Calm     82 % 0 mm
21:09 10.8 °C 7.8 °C 1017.2 hPa Calm     82 % 0 mm
21:14 10.7 °C 7.9 °C 1017.2 hPa Calm     83 % 0 mm
21:15 10.7 °C 7.9 °C 1017.2 hPa Calm     83 % 0 mm
21:16 10.7 °C 7.9 °C 1017.2 hPa Calm     83 % 0 mm
21:21 10.7 °C 7.9 °C 1016.8 hPa Calm     83 % 0 mm
21:26 10.5 °C 7.7 °C 1016.8 hPa Calm     83 % 0 mm
21:29 10.4 °C 7.7 °C 1016.8 hPa Calm     83 % 0 mm
21:30 10.4 °C 7.6 °C 1016.8 hPa ESE 1.9 km/h 1.9 km/h 83 % 0 mm
21:34 10.3 °C 7.7 °C 1016.8 hPa Calm     84 % 0 mm
21:35 10.2 °C 7.6 °C 1016.8 hPa Calm     84 % 0 mm
21:36 10.2 °C 7.6 °C 1016.8 hPa Calm     84 % 0 mm
21:37 10.2 °C 7.6 °C 1017.2 hPa ESE 1.9 km/h   84 % 0 mm
21:38 10.2 °C 7.6 °C 1017.2 hPa ESE 1.9 km/h 1.9 km/h 84 % 0 mm
21:43 10.1 °C 7.5 °C 1017.2 hPa ESE 1.9 km/h   84 % 0 mm
21:47 10 °C 7.4 °C 1017.2 hPa Calm     84 % 0 mm
21:49 9.9 °C 7.5 °C 1017.2 hPa Calm     85 % 0 mm
21:54 9.8 °C 7.4 °C 1017.2 hPa SE 1.6 km/h 1.6 km/h 85 % 0 mm
21:55 9.8 °C 7.4 °C 1017.2 hPa SE 1.9 km/h 1.9 km/h 85 % 0 mm
21:58 9.6 °C 7.4 °C 1017.2 hPa SE 1.9 km/h 1.9 km/h 86 % 0 mm
22:00 9.6 °C 7.4 °C 1017.2 hPa SE 3.7 km/h 3.7 km/h 86 % 0 mm
22:01 9.6 °C 7.3 °C 1017.2 hPa ESE 1.9 km/h 1.9 km/h 86 % 0 mm
22:03 9.5 °C 7.3 °C 1017.2 hPa SE 1.9 km/h   86 % 0 mm
22:08 9.3 °C 7.3 °C 1017.5 hPa SE 1.9 km/h 1.9 km/h 87 % 0 mm
22:10 9.3 °C 7.3 °C 1017.5 hPa SE 1.9 km/h   87 % 0 mm
22:15 9.3 °C 7.3 °C 1017.8 hPa Calm     87 % 0 mm
22:18 9.3 °C 7.3 °C 1017.8 hPa SE 1.9 km/h   87 % 0 mm
22:21 9.3 °C 7.2 °C 1017.5 hPa SSE 1.9 km/h 1.9 km/h 87 % 0 mm
22:24 9.2 °C 7.2 °C 1017.5 hPa SE 1.9 km/h 1.9 km/h 87 % 0 mm
22:26 9.2 °C 7.1 °C 1017.5 hPa Calm     87 % 0 mm
22:28 9.1 °C 7.1 °C 1017.5 hPa Calm   0.2 km/h 87 % 0 mm
22:33 9.1 °C 7 °C 1017.5 hPa Calm     87 % 0 mm
22:34 9 °C 6.9 °C 1017.5 hPa SE 1.9 km/h 1.9 km/h 87 % 0 mm
22:38 9 °C 6.9 °C 1017.8 hPa SE 1.6 km/h   87 % 0 mm
22:39 8.9 °C 6.9 °C 1017.8 hPa SE 1.9 km/h   87 % 0 mm
22:42 8.9 °C 6.9 °C 1017.8 hPa Calm     87 % 0 mm
22:45 8.9 °C 6.9 °C 1017.8 hPa Calm     87 % 0 mm
22:46 8.9 °C 6.9 °C 1017.8 hPa Calm     87 % 0 mm
22:47 8.9 °C 6.9 °C 1017.8 hPa Calm     87 % 0 mm
22:51 9.1 °C 6.8 °C 1017.8 hPa Calm     86 % 0 mm
22:53 9.1 °C 6.8 °C 1017.8 hPa SE 1.9 km/h   86 % 0 mm
22:54 9.1 °C 6.8 °C 1017.8 hPa Calm     86 % 0 mm
22:58 9.1 °C 6.8 °C 1017.8 hPa Calm     86 % 0 mm
23:03 9.1 °C 6.8 °C 1017.8 hPa ESE 1.9 km/h   86 % 0 mm
23:04 9.1 °C 6.8 °C 1017.8 hPa Calm     86 % 0 mm
23:05 9.1 °C 6.8 °C 1017.8 hPa Calm     86 % 0 mm
23:10 9.1 °C 7 °C 1018.2 hPa Calm     87 % 0 mm
23:13 9.1 °C 7.1 °C 1018.2 hPa Calm     87 % 0 mm
23:15 9.2 °C 7.1 °C 1018.2 hPa East 1.9 km/h 1.9 km/h 87 % 0 mm
23:16 9.2 °C 7.1 °C 1018.2 hPa SE 1.9 km/h 1.9 km/h 87 % 0 mm
23:17 9.2 °C 7.2 °C 1018.2 hPa SE 1.9 km/h 1.9 km/h 87 % 0 mm
23:21 9.3 °C 7.3 °C 1018.2 hPa SE 1.9 km/h 1.9 km/h 87 % 0 mm
23:29 9.5 °C 7.3 °C 1018.2 hPa SE 1.9 km/h 1.9 km/h 86 % 0 mm
23:30 9.6 °C 7.5 °C 1017.8 hPa SE 1.9 km/h 1.9 km/h 87 % 0 mm
23:35 9.8 °C 7.6 °C 1017.8 hPa SE 1.9 km/h   86 % 0 mm
23:36 9.8 °C 7.6 °C 1017.8 hPa SE 1.9 km/h 1.9 km/h 86 % 0 mm
23:39 9.9 °C 7.6 °C 1017.8 hPa Calm     85 % 0 mm
23:41 10 °C 7.6 °C 1017.8 hPa SE 1.9 km/h 1.9 km/h 85 % 0 mm
23:46 10 °C 7.6 °C 1017.8 hPa ESE 1.9 km/h 1.9 km/h 85 % 0 mm
23:52 9.9 °C 7.4 °C 1017.5 hPa Calm     84 % 0 mm
23:55 9.9 °C 7.4 °C 1017.5 hPa Calm     84 % 0 mm
23:57 9.9 °C 7.3 °C 1017.5 hPa Calm     84 % 0 mm
Park Place, Exeter, Tulare County, California, USA
Compliments of Weather Underground - 3.25 mb